createdAt,value
2022-08-03T00:01:28.246Z,1.40
2022-08-03T00:03:55.133Z,1.73
2022-08-03T00:06:21.916Z,1.52
2022-08-03T00:08:49.380Z,1.50
2022-08-03T00:11:16.175Z,2.00
2022-08-03T00:13:43.075Z,1.60
2022-08-03T00:16:10.763Z,1.67
2022-08-03T00:18:37.895Z,1.63
2022-08-03T00:21:04.997Z,1.40
2022-08-03T00:23:52.184Z,1.73
2022-08-03T00:26:18.705Z,1.67
2022-08-03T00:28:45.558Z,1.67
2022-08-03T00:31:13.416Z,2.10
2022-08-03T00:33:58.994Z,1.48
2022-08-03T00:36:27.439Z,1.67
2022-08-03T00:38:54.522Z,1.85
2022-08-03T00:41:21.427Z,1.55
2022-08-03T00:43:48.262Z,1.40
2022-08-03T00:46:19.265Z,1.63
2022-08-03T00:48:49.633Z,1.55
2022-08-03T00:51:16.533Z,1.80
2022-08-03T00:53:43.428Z,1.50
2022-08-03T00:56:13.035Z,1.90
2022-08-03T00:58:39.869Z,1.70
2022-08-03T01:01:07.302Z,1.50
2022-08-03T01:03:34.533Z,1.90
2022-08-03T01:06:25.699Z,1.60
2022-08-03T01:08:58.543Z,1.83
2022-08-03T01:12:00.618Z,1.98
2022-08-03T01:14:39.364Z,1.83
2022-08-03T01:17:15.354Z,1.55
2022-08-03T01:19:47.131Z,1.40
2022-08-03T01:22:37.389Z,1.70
2022-08-03T01:25:14.185Z,2.00
2022-08-03T01:28:13.297Z,1.73
2022-08-03T01:30:40.376Z,1.60
2022-08-03T01:33:12.194Z,1.90
2022-08-03T01:35:45.018Z,1.80
2022-08-03T01:38:13.987Z,1.92
2022-08-03T01:40:41.700Z,1.95
2022-08-03T01:43:09.788Z,2.08
2022-08-03T01:45:36.756Z,1.80
2022-08-03T01:48:03.973Z,1.90
2022-08-03T01:50:31.232Z,2.05
2022-08-03T01:52:58.298Z,2.15
2022-08-03T01:55:27.324Z,2.00
2022-08-03T01:58:05.202Z,1.77
2022-08-03T02:00:33.492Z,1.98
2022-08-03T02:03:00.297Z,2.30
2022-08-03T02:05:27.276Z,2.28
2022-08-03T02:07:54.033Z,2.00
2022-08-03T02:10:34.804Z,2.35
2022-08-03T02:13:03.198Z,1.88
2022-08-03T02:15:30.420Z,1.92
2022-08-03T02:17:57.565Z,2.33
2022-08-03T02:20:24.562Z,1.95
2022-08-03T02:22:51.469Z,2.20
2022-08-03T02:25:18.631Z,1.75
2022-08-03T02:28:09.353Z,1.80
2022-08-03T02:30:41.264Z,2.17
2022-08-03T02:34:22.971Z,2.00
2022-08-03T02:36:50.641Z,2.15
2022-08-03T02:39:20.518Z,2.22
2022-08-03T02:41:52.132Z,1.95
2022-08-03T02:44:22.127Z,1.95
2022-08-03T02:46:49.446Z,2.17
2022-08-03T02:49:35.361Z,2.55
2022-08-03T02:52:04.450Z,2.33
2022-08-03T02:54:31.377Z,2.00
2022-08-03T02:56:58.733Z,2.58
2022-08-03T02:59:25.613Z,2.65
2022-08-03T03:01:53.871Z,2.10
2022-08-03T03:04:20.941Z,2.55
2022-08-03T03:06:51.849Z,2.75
2022-08-03T03:09:18.871Z,1.98
2022-08-03T03:11:45.721Z,2.03
2022-08-03T03:14:13.456Z,2.22
2022-08-03T03:16:41.218Z,2.35
2022-08-03T03:19:08.750Z,2.20
2022-08-03T03:21:36.026Z,2.40
2022-08-03T03:24:03.022Z,2.60
2022-08-03T03:26:30.067Z,2.22
2022-08-03T03:28:57.125Z,2.10
2022-08-03T03:31:23.973Z,2.42
2022-08-03T03:33:51.034Z,2.00
2022-08-03T03:36:18.557Z,2.20
2022-08-03T03:38:45.420Z,2.63
2022-08-03T03:41:12.286Z,2.20
2022-08-03T03:43:39.097Z,2.33
2022-08-03T03:46:05.944Z,2.30
2022-08-03T03:48:33.115Z,2.35
2022-08-03T03:51:00.304Z,2.00
2022-08-03T03:53:27.373Z,2.45
2022-08-03T03:56:01.993Z,2.03
2022-08-03T03:58:32.385Z,2.88
2022-08-03T04:00:59.747Z,2.35
2022-08-03T04:03:26.698Z,2.03
2022-08-03T04:06:14.050Z,2.00
2022-08-03T04:09:19.053Z,1.90
2022-08-03T04:11:49.342Z,2.30
2022-08-03T04:14:35.280Z,1.90
2022-08-03T04:17:03.690Z,2.22
2022-08-03T04:19:35.447Z,2.35
2022-08-03T04:22:05.352Z,2.17
2022-08-03T04:24:35.047Z,2.42
2022-08-03T04:27:03.047Z,2.08
2022-08-03T04:29:30.156Z,2.22
2022-08-03T04:31:56.980Z,2.78
2022-08-03T04:34:23.782Z,4.82
2022-08-03T04:36:52.033Z,2.40
2022-08-03T04:39:24.519Z,2.38
2022-08-03T04:42:07.269Z,2.22
2022-08-03T04:44:40.539Z,2.70
2022-08-03T04:47:07.680Z,2.08
2022-08-03T04:49:38.682Z,2.35
2022-08-03T04:52:07.204Z,2.35
2022-08-03T04:54:50.330Z,2.00
2022-08-03T04:57:18.161Z,2.30
2022-08-03T04:59:58.197Z,2.07
2022-08-03T05:02:28.917Z,2.20
2022-08-03T05:04:55.695Z,2.20
2022-08-03T05:07:25.200Z,2.35
2022-08-03T05:10:01.357Z,2.00
2022-08-03T05:12:32.714Z,2.10
2022-08-03T05:15:00.563Z,1.88
2022-08-03T05:17:28.356Z,2.83
2022-08-03T05:19:55.420Z,2.50
2022-08-03T05:22:22.648Z,2.08
2022-08-03T05:24:49.535Z,2.08
2022-08-03T05:27:22.234Z,2.22
2022-08-03T05:29:50.136Z,2.70
2022-08-03T05:32:17.467Z,2.60
2022-08-03T05:34:44.820Z,2.30
2022-08-03T05:37:11.817Z,2.40
2022-08-03T05:39:38.684Z,2.60
2022-08-03T05:42:05.708Z,2.47
2022-08-03T05:44:32.519Z,2.60
2022-08-03T05:46:59.602Z,2.58
2022-08-03T05:49:26.489Z,2.20
2022-08-03T05:52:00.106Z,2.35
2022-08-03T05:54:56.847Z,2.13
2022-08-03T05:57:27.086Z,2.28
2022-08-03T05:59:58.286Z,2.20
2022-08-03T06:02:26.577Z,2.25
2022-08-03T06:04:53.639Z,2.67
2022-08-03T06:07:20.502Z,2.22
2022-08-03T06:10:34.196Z,2.05
2022-08-03T06:12:36.991Z,2.28
2022-08-03T06:15:04.916Z,2.47
2022-08-03T06:17:37.319Z,1.90
2022-08-03T06:20:05.805Z,2.45
2022-08-03T06:22:32.737Z,2.50
2022-08-03T06:25:04.052Z,2.35
2022-08-03T06:27:37.126Z,2.10
2022-08-03T06:30:05.139Z,2.40
2022-08-03T06:32:32.044Z,1.85
2022-08-03T06:34:58.834Z,2.28
2022-08-03T06:37:27.090Z,1.85
2022-08-03T06:39:54.286Z,2.08
2022-08-03T06:42:21.181Z,2.10
2022-08-03T06:44:49.539Z,2.00
2022-08-03T06:47:16.390Z,2.00
2022-08-03T06:49:43.411Z,1.80
2022-08-03T06:52:10.355Z,1.70
2022-08-03T06:54:37.250Z,1.98
2022-08-03T06:57:04.683Z,1.90
2022-08-03T07:00:08.953Z,1.73
2022-08-03T07:02:21.413Z,1.90
2022-08-03T07:04:48.930Z,2.05
2022-08-03T07:07:15.834Z,1.90
2022-08-03T07:09:42.750Z,1.92
2022-08-03T07:12:26.175Z,2.00
2022-08-03T07:14:58.055Z,1.95
2022-08-03T07:17:27.407Z,2.35
2022-08-03T07:19:54.185Z,2.30
2022-08-03T07:22:20.978Z,1.92
2022-08-03T07:24:47.842Z,1.92
2022-08-03T07:27:16.356Z,2.00
2022-08-03T07:29:43.235Z,1.92
2022-08-03T07:32:10.155Z,1.90
2022-08-03T07:34:37.055Z,1.80
2022-08-03T07:37:03.992Z,1.90
2022-08-03T07:39:30.784Z,2.10
2022-08-03T07:41:57.597Z,2.17
2022-08-03T07:44:24.471Z,1.73
2022-08-03T07:46:51.328Z,2.00
2022-08-03T07:49:18.942Z,2.15
2022-08-03T07:51:45.790Z,1.83
2022-08-03T07:54:12.687Z,2.13
2022-08-03T07:56:39.576Z,1.80
2022-08-03T07:59:06.365Z,1.98
2022-08-03T08:01:36.717Z,2.10
2022-08-03T08:04:03.776Z,1.83
2022-08-03T08:06:32.762Z,2.40
2022-08-03T08:09:02.298Z,2.00
2022-08-03T08:11:29.197Z,2.03
2022-08-03T08:13:56.051Z,1.77
2022-08-03T08:16:22.999Z,2.20
2022-08-03T08:18:49.815Z,2.17
2022-08-03T08:21:16.665Z,2.30
2022-08-03T08:23:46.215Z,2.00
2022-08-03T08:26:21.975Z,1.90
2022-08-03T08:28:49.184Z,2.25
2022-08-03T08:31:16.013Z,1.80
2022-08-03T08:34:03.194Z,1.90
2022-08-03T08:36:29.708Z,2.00
2022-08-03T08:38:56.558Z,2.38
2022-08-03T08:41:23.355Z,2.00
2022-08-03T08:44:00.202Z,1.73
2022-08-03T08:46:27.317Z,2.33
2022-08-03T08:48:54.553Z,2.08
2022-08-03T08:51:22.278Z,1.95
2022-08-03T08:53:51.850Z,2.35
2022-08-03T08:56:18.723Z,2.03
2022-08-03T08:58:49.100Z,1.92
2022-08-03T09:01:19.076Z,2.22
2022-08-03T09:03:46.807Z,2.03
2022-08-03T09:06:13.699Z,2.10
2022-08-03T09:08:40.546Z,1.85
2022-08-03T09:11:12.054Z,2.63
2022-08-03T09:13:39.355Z,3.50
2022-08-03T09:16:16.022Z,2.20
2022-08-03T09:18:43.967Z,2.40
2022-08-03T09:21:36.292Z,2.20
2022-08-03T09:24:05.640Z,2.10
2022-08-03T09:26:36.937Z,2.33
2022-08-03T09:29:14.783Z,1.90
2022-08-03T09:31:44.395Z,2.35
2022-08-03T09:34:13.191Z,1.95
2022-08-03T09:36:47.522Z,2.40
2022-08-03T09:39:41.146Z,2.20
2022-08-03T09:42:17.527Z,2.08
2022-08-03T09:44:46.085Z,1.98
2022-08-03T09:47:16.935Z,1.70
2022-08-03T09:50:04.208Z,2.20
2022-08-03T09:52:39.091Z,2.28
2022-08-03T09:56:05.119Z,1.90
2022-08-03T09:58:07.171Z,2.10
2022-08-03T10:00:34.047Z,2.15
2022-08-03T10:03:04.657Z,1.90
2022-08-03T10:05:34.538Z,2.03
2022-08-03T10:08:01.354Z,2.05
2022-08-03T10:10:30.425Z,2.17
2022-08-03T10:12:58.754Z,1.90
2022-08-03T10:16:23.957Z,2.25
2022-08-03T10:18:13.011Z,2.17
2022-08-03T10:20:53.568Z,2.13
2022-08-03T10:23:20.531Z,2.50
2022-08-03T10:25:48.460Z,2.20
2022-08-03T10:28:16.944Z,2.10
2022-08-03T10:30:45.412Z,2.05
2022-08-03T10:33:50.292Z,1.92
2022-08-03T10:36:06.045Z,2.30
2022-08-03T10:38:46.116Z,2.15
2022-08-03T10:41:13.459Z,2.03
2022-08-03T10:43:50.597Z,2.50
2022-08-03T10:46:20.741Z,2.70
2022-08-03T10:48:48.737Z,2.25
2022-08-03T10:51:16.035Z,2.42
2022-08-03T10:53:54.308Z,2.28
2022-08-03T10:56:54.482Z,1.95
2022-08-03T10:59:48.507Z,2.40
2022-08-03T11:02:15.580Z,1.88
2022-08-03T11:04:42.858Z,2.03
2022-08-03T11:07:18.986Z,2.05
2022-08-03T11:09:50.493Z,2.03
2022-08-03T11:12:32.163Z,1.67
2022-08-03T11:15:05.770Z,1.77
2022-08-03T11:17:46.311Z,2.20
2022-08-03T11:20:47.575Z,2.22
2022-08-03T11:23:15.152Z,2.00
2022-08-03T11:26:10.777Z,1.70
2022-08-03T11:28:39.018Z,1.80
2022-08-03T11:31:48.537Z,1.95
2022-08-03T11:34:15.575Z,1.70
2022-08-03T11:37:21.535Z,1.85
2022-08-03T11:39:50.061Z,1.45
2022-08-03T11:42:23.436Z,1.70
2022-08-03T11:44:51.370Z,1.10
2022-08-03T11:47:18.709Z,1.30
2022-08-03T11:49:50.785Z,1.48
2022-08-03T11:52:17.922Z,1.55
2022-08-03T11:54:45.184Z,1.35
2022-08-03T11:57:12.260Z,1.20
2022-08-03T11:59:39.198Z,1.10
2022-08-03T12:02:09.473Z,1.42
2022-08-03T12:04:58.849Z,1.17
2022-08-03T12:08:03.151Z,1.45
2022-08-03T12:10:14.861Z,1.35
2022-08-03T12:12:46.357Z,1.02
2022-08-03T12:15:13.661Z,1.40
2022-08-03T12:17:41.401Z,1.13
2022-08-03T12:20:09.538Z,1.10
2022-08-03T12:22:38.022Z,1.00
2022-08-03T12:25:05.804Z,1.20
2022-08-03T12:27:32.783Z,1.25
2022-08-03T12:30:00.958Z,1.13
2022-08-03T12:32:28.913Z,1.20
2022-08-03T12:35:00.235Z,1.40
2022-08-03T12:37:27.452Z,1.38
2022-08-03T12:40:02.290Z,1.75
2022-08-03T12:42:35.105Z,1.25
2022-08-03T12:45:26.295Z,1.50
2022-08-03T12:47:57.692Z,1.45
2022-08-03T12:50:31.687Z,1.10
2022-08-03T12:52:59.748Z,1.33
2022-08-03T12:55:56.241Z,0.88
2022-08-03T12:58:33.781Z,0.60
2022-08-03T13:01:01.702Z,0.63
2022-08-03T13:03:49.803Z,0.52
2022-08-03T13:06:24.621Z,0.63
2022-08-03T13:09:05.361Z,0.80
2022-08-03T13:11:43.514Z,0.73
2022-08-03T13:14:20.198Z,1.08
2022-08-03T13:16:48.508Z,0.93
2022-08-03T13:19:16.166Z,1.05
2022-08-03T13:21:53.726Z,1.00
2022-08-03T13:24:31.640Z,1.00
2022-08-03T13:26:59.614Z,1.00
2022-08-03T13:29:26.550Z,1.20
2022-08-03T13:31:53.522Z,1.23
2022-08-03T13:34:23.601Z,1.30
2022-08-03T13:37:10.182Z,1.10
2022-08-03T13:39:59.801Z,1.08
2022-08-03T13:42:24.643Z,1.10
2022-08-03T13:44:51.530Z,1.15
2022-08-03T13:47:19.911Z,1.20
2022-08-03T13:50:00.477Z,1.80
2022-08-03T13:52:33.076Z,1.20
2022-08-03T13:55:00.533Z,1.20
2022-08-03T13:58:06.190Z,1.20
2022-08-03T14:00:26.158Z,1.33
2022-08-03T14:03:14.933Z,1.55
2022-08-03T14:05:43.058Z,1.23
2022-08-03T14:08:10.083Z,1.30
2022-08-03T14:10:37.953Z,1.10
2022-08-03T14:13:05.128Z,1.20
2022-08-03T14:15:32.037Z,1.40
2022-08-03T14:18:04.315Z,1.30
2022-08-03T14:20:46.078Z,1.38
2022-08-03T14:23:17.601Z,1.33
2022-08-03T14:25:51.756Z,1.15
2022-08-03T14:28:19.971Z,1.10
2022-08-03T14:30:47.908Z,1.08
2022-08-03T14:33:14.949Z,1.05
2022-08-03T14:35:41.866Z,1.30
2022-08-03T14:38:08.785Z,1.13
2022-08-03T14:40:35.716Z,1.23
2022-08-03T14:43:02.620Z,1.25
2022-08-03T14:45:29.651Z,1.20
2022-08-03T14:50:30.373Z,1.20
2022-08-03T14:50:50.321Z,1.00
2022-08-03T14:53:18.166Z,1.20
2022-08-03T14:55:49.596Z,1.45
2022-08-03T14:58:25.354Z,1.42
2022-08-03T15:00:52.949Z,1.40
2022-08-03T15:03:23.325Z,1.50
2022-08-03T15:05:51.996Z,1.38
2022-08-03T15:08:19.125Z,1.35
2022-08-03T15:10:46.049Z,1.27
2022-08-03T15:13:16.549Z,1.27
2022-08-03T15:15:43.513Z,1.52
2022-08-03T15:18:10.453Z,1.38
2022-08-03T15:20:45.078Z,1.30
2022-08-03T15:23:13.864Z,1.52
2022-08-03T15:26:27.936Z,1.23
2022-08-03T15:28:27.726Z,1.15
2022-08-03T15:30:54.673Z,1.30
2022-08-03T15:33:21.781Z,1.30
2022-08-03T15:35:49.835Z,1.35
2022-08-03T15:38:16.899Z,1.75
2022-08-03T15:40:43.775Z,1.30
2022-08-03T15:43:10.715Z,1.55
2022-08-03T15:45:37.648Z,1.50
2022-08-03T15:48:07.697Z,1.13
2022-08-03T15:50:34.692Z,1.48
2022-08-03T15:53:01.571Z,1.45
2022-08-03T15:55:28.426Z,1.15
2022-08-03T15:59:10.363Z,1.40
2022-08-03T16:00:42.861Z,1.33
2022-08-03T16:03:10.200Z,1.55
2022-08-03T16:05:37.113Z,1.50
2022-08-03T16:08:05.609Z,1.60
2022-08-03T16:10:34.782Z,1.63
2022-08-03T16:13:01.636Z,1.40
2022-08-03T16:15:28.632Z,1.60
2022-08-03T16:17:55.505Z,1.70
2022-08-03T16:20:31.686Z,1.75
2022-08-03T16:23:09.136Z,1.70
2022-08-03T16:25:42.808Z,1.45
2022-08-03T16:28:15.103Z,1.73
2022-08-03T16:30:43.065Z,1.67
2022-08-03T16:33:10.342Z,1.50
2022-08-03T16:35:37.249Z,1.80
2022-08-03T16:38:09.547Z,1.77
2022-08-03T16:40:37.082Z,1.65
2022-08-03T16:43:18.468Z,1.60
2022-08-03T16:45:46.863Z,1.67
2022-08-03T16:48:14.443Z,1.30
2022-08-03T16:50:41.408Z,1.70
2022-08-03T16:53:09.144Z,1.90
2022-08-03T16:55:43.423Z,1.40
2022-08-03T16:58:24.464Z,1.70
2022-08-03T17:01:20.845Z,1.33
2022-08-03T17:04:02.197Z,1.90
2022-08-03T17:06:36.474Z,1.30
2022-08-03T17:11:46.779Z,1.40
2022-08-03T17:14:21.758Z,1.55
2022-08-03T17:16:52.009Z,1.73
2022-08-03T17:19:21.634Z,1.73
2022-08-03T17:22:04.388Z,1.75
2022-08-03T17:24:34.079Z,1.50
2022-08-03T17:27:09.254Z,1.88
2022-08-03T17:29:50.147Z,1.80
2022-08-03T17:32:21.390Z,1.63
2022-08-03T17:34:49.001Z,2.03
2022-08-03T17:37:50.650Z,2.00
2022-08-03T17:40:04.154Z,1.95
2022-08-03T17:42:33.147Z,1.85
2022-08-03T17:45:07.157Z,1.80
2022-08-03T17:47:41.800Z,1.70
2022-08-03T17:50:25.101Z,2.97
2022-08-03T17:52:58.403Z,1.80
2022-08-03T17:55:55.543Z,1.88
2022-08-03T17:58:16.137Z,1.75
2022-08-03T18:01:02.525Z,2.00
2022-08-03T18:03:57.890Z,1.70
2022-08-03T18:06:28.627Z,1.42
2022-08-03T18:08:56.485Z,2.03
2022-08-03T18:11:23.963Z,1.85
2022-08-03T18:14:16.984Z,2.40
2022-08-03T18:16:45.768Z,2.00
2022-08-03T18:19:13.664Z,1.90
2022-08-03T18:22:03.590Z,1.92
2022-08-03T18:24:30.040Z,1.50
2022-08-03T18:26:56.996Z,2.22
2022-08-03T18:29:24.161Z,2.15
2022-08-03T18:32:03.298Z,1.80
2022-08-03T18:34:33.228Z,1.92
2022-08-03T18:37:01.141Z,1.75
2022-08-03T18:39:35.944Z,1.70
2022-08-03T18:42:19.574Z,2.20
2022-08-03T18:44:54.075Z,1.60
2022-08-03T18:47:53.102Z,1.70
2022-08-03T18:50:36.831Z,2.00
2022-08-03T18:53:15.807Z,1.67
2022-08-03T18:56:06.526Z,1.80
2022-08-03T18:59:03.862Z,1.92
2022-08-03T19:02:00.592Z,1.85
2022-08-03T19:04:34.197Z,1.70
2022-08-03T19:07:08.971Z,1.80
2022-08-03T19:09:56.056Z,1.65
2022-08-03T19:12:47.343Z,2.13
2022-08-03T19:15:15.597Z,1.80
2022-08-03T19:17:50.076Z,1.65
2022-08-03T19:20:25.384Z,2.00
2022-08-03T19:22:52.779Z,1.75
2022-08-03T19:25:19.777Z,1.88
2022-08-03T19:28:02.891Z,1.70
2022-08-03T19:30:38.813Z,2.10
2022-08-03T19:33:15.102Z,2.13
2022-08-03T19:35:55.116Z,1.90
2022-08-03T19:38:28.608Z,1.60
2022-08-03T19:41:02.116Z,2.00
2022-08-03T19:43:53.118Z,1.88
2022-08-03T19:46:21.741Z,1.75
2022-08-03T19:49:15.102Z,1.70
2022-08-03T19:54:52.779Z,2.10
2022-08-03T19:57:20.587Z,2.33
2022-08-03T19:59:50.158Z,2.15
2022-08-03T20:02:26.313Z,2.15
2022-08-03T20:04:57.407Z,1.92
2022-08-03T20:07:25.844Z,1.92
2022-08-03T20:09:54.617Z,2.13
2022-08-03T20:12:28.061Z,2.28
2022-08-03T20:14:58.669Z,1.95
2022-08-03T20:17:54.969Z,1.67
2022-08-03T20:20:13.523Z,2.15
2022-08-03T20:22:45.606Z,2.03
2022-08-03T20:25:16.346Z,2.30
2022-08-03T20:28:07.136Z,2.00
2022-08-03T20:30:35.163Z,1.80
2022-08-03T20:33:02.013Z,1.67
2022-08-03T20:35:30.447Z,1.85
2022-08-03T20:37:58.197Z,2.17
2022-08-03T20:40:27.510Z,1.92
2022-08-03T20:43:13.895Z,2.30
2022-08-03T20:46:00.322Z,2.00
2022-08-03T20:48:28.056Z,1.83
2022-08-03T20:50:56.544Z,2.05
2022-08-03T20:53:57.022Z,2.13
2022-08-03T20:56:10.481Z,1.85
2022-08-03T20:58:37.348Z,1.88
2022-08-03T21:01:08.573Z,2.17
2022-08-03T21:03:40.755Z,2.40
2022-08-03T21:06:27.966Z,2.42
2022-08-03T21:09:03.947Z,2.10
2022-08-03T21:11:41.824Z,2.15
2022-08-03T21:13:03.089Z,1.70
2022-08-03T21:14:33.181Z,2.03
2022-08-03T21:17:01.660Z,2.08
2022-08-03T21:19:29.406Z,1.90
2022-08-03T21:21:56.355Z,2.28
2022-08-03T21:24:24.657Z,1.73
2022-08-03T21:26:52.396Z,1.75
2022-08-03T21:29:19.292Z,1.63
2022-08-03T21:31:46.219Z,1.75
2022-08-03T21:34:13.091Z,2.35
2022-08-03T21:36:40.028Z,1.92
2022-08-03T21:39:08.359Z,1.92
2022-08-03T21:41:35.979Z,1.65
2022-08-03T21:44:03.009Z,1.98
2022-08-03T21:46:40.287Z,2.10
2022-08-03T21:50:07.972Z,2.00
2022-08-03T21:51:57.242Z,2.05
2022-08-03T21:54:24.158Z,2.10
2022-08-03T21:56:51.463Z,1.95
2022-08-03T21:59:19.731Z,2.17
2022-08-03T22:01:49.025Z,2.00
2022-08-03T22:04:53.377Z,2.20
2022-08-03T22:07:05.191Z,2.10
2022-08-03T22:09:34.252Z,2.42
2022-08-03T22:12:01.155Z,2.00
2022-08-03T22:14:28.035Z,2.30
2022-08-03T22:16:54.886Z,2.10
2022-08-03T22:19:21.737Z,2.30
2022-08-03T22:21:49.037Z,1.92
2022-08-03T22:24:17.455Z,2.22
2022-08-03T22:27:04.266Z,1.58
2022-08-03T22:29:31.618Z,2.13
2022-08-03T22:31:59.466Z,2.30
2022-08-03T22:34:27.217Z,2.30
2022-08-03T22:36:57.274Z,2.00
2022-08-03T22:39:28.701Z,2.28
2022-08-03T22:41:57.695Z,1.95
2022-08-03T22:44:24.756Z,1.92
2022-08-03T22:46:51.624Z,2.13
2022-08-03T22:49:18.570Z,2.33
2022-08-03T22:51:45.404Z,2.20
2022-08-03T22:54:12.272Z,2.00
2022-08-03T22:56:39.440Z,1.98
2022-08-03T22:59:40.031Z,1.95
2022-08-03T23:01:53.312Z,2.17
2022-08-03T23:04:20.141Z,2.00
2022-08-03T23:06:47.019Z,2.15
2022-08-03T23:09:13.896Z,2.25
2022-08-03T23:11:45.220Z,1.88
2022-08-03T23:14:15.215Z,2.17
2022-08-03T23:16:43.490Z,2.10
2022-08-03T23:19:17.216Z,2.17
2022-08-03T23:22:03.298Z,2.08
2022-08-03T23:24:32.801Z,2.03
2022-08-03T23:26:59.620Z,1.70
2022-08-03T23:29:26.511Z,1.85
2022-08-03T23:31:53.331Z,2.10
2022-08-03T23:34:38.450Z,2.00
2022-08-03T23:37:05.255Z,2.10
2022-08-03T23:39:35.021Z,2.13
2022-08-03T23:42:03.024Z,2.08
2022-08-03T23:44:30.282Z,1.98
2022-08-03T23:46:57.595Z,2.17
2022-08-03T23:49:24.397Z,2.13
2022-08-03T23:52:06.889Z,2.10
2022-08-03T23:54:56.491Z,2.28
2022-08-03T23:57:49.161Z,2.15
